Terminal Aerodrome Forecast
Issued by NWS Charleston, WV

Current Version | Previous Version | Graphics & Text | Print | Product List | Glossary On
Versions: 1 2 3 4 5 6 7 8 9 10 11 12 13 14 15 16 17 18 19 20 21 22 23 24 25 26 27 28
000
FTUS41 KRLX 240541
TAFBKW
TAF
KBKW 240541Z 2406/2506 30010KT 4SM -RADZ OVC005
     FM241600 30011G20KT P6SM OVC007
     FM250000 30009KT P6SM OVC011
     FM250300 28007KT P6SM SCT017=

USA.gov is the U.S. government's official web portal to all federal, state and local government web resources and services.